sensor_id;sensor_type;location;lat;lon;timestamp;P1;durP1;ratioP1;P2;durP2;ratioP2
19705;SDS011;10003;52.506;4.700;2022-11-22T00:01:17;6.03;;;4.33;;
19705;SDS011;10003;52.506;4.700;2022-11-22T00:03:46;4.10;;;3.70;;
19705;SDS011;10003;52.506;4.700;2022-11-22T00:06:14;6.77;;;3.50;;
19705;SDS011;10003;52.506;4.700;2022-11-22T00:08:42;10.70;;;7.43;;
19705;SDS011;10003;52.506;4.700;2022-11-22T00:11:12;10.63;;;8.10;;
19705;SDS011;10003;52.506;4.700;2022-11-22T00:13:40;7.23;;;4.73;;
19705;SDS011;10003;52.506;4.700;2022-11-22T00:16:09;10.00;;;7.37;;
19705;SDS011;10003;52.506;4.700;2022-11-22T00:18:37;7.13;;;4.97;;
19705;SDS011;10003;52.506;4.700;2022-11-22T00:21:06;4.03;;;3.17;;
19705;SDS011;10003;52.506;4.700;2022-11-22T00:23:34;10.80;;;7.27;;
19705;SDS011;10003;52.506;4.700;2022-11-22T00:26:03;10.57;;;8.73;;
19705;SDS011;10003;52.506;4.700;2022-11-22T00:28:33;14.27;;;10.47;;
19705;SDS011;10003;52.506;4.700;2022-11-22T00:31:02;11.97;;;7.80;;
19705;SDS011;10003;52.506;4.700;2022-11-22T00:33:30;10.43;;;7.90;;
19705;SDS011;10003;52.506;4.700;2022-11-22T00:35:59;11.77;;;9.07;;
19705;SDS011;10003;52.506;4.700;2022-11-22T00:38:27;13.40;;;9.93;;
19705;SDS011;10003;52.506;4.700;2022-11-22T00:40:56;16.00;;;10.87;;
19705;SDS011;10003;52.506;4.700;2022-11-22T00:43:24;14.30;;;11.47;;
19705;SDS011;10003;52.506;4.700;2022-11-22T00:45:54;13.33;;;11.93;;
19705;SDS011;10003;52.506;4.700;2022-11-22T00:48:22;8.50;;;7.67;;
19705;SDS011;10003;52.506;4.700;2022-11-22T00:50:50;14.50;;;12.83;;
19705;SDS011;10003;52.506;4.700;2022-11-22T00:53:19;14.60;;;13.07;;
19705;SDS011;10003;52.506;4.700;2022-11-22T00:55:47;21.33;;;11.30;;
19705;SDS011;10003;52.506;4.700;2022-11-22T00:58:16;16.60;;;12.63;;
19705;SDS011;10003;52.506;4.700;2022-11-22T01:00:44;16.90;;;14.80;;
19705;SDS011;10003;52.506;4.700;2022-11-22T01:03:20;17.17;;;14.83;;
19705;SDS011;10003;52.506;4.700;2022-11-22T01:05:48;19.57;;;13.83;;
19705;SDS011;10003;52.506;4.700;2022-11-22T01:08:16;16.37;;;14.67;;
19705;SDS011;10003;52.506;4.700;2022-11-22T01:10:45;17.73;;;14.10;;
19705;SDS011;10003;52.506;4.700;2022-11-22T01:13:13;15.60;;;13.60;;
19705;SDS011;10003;52.506;4.700;2022-11-22T01:15:41;13.80;;;10.57;;
19705;SDS011;10003;52.506;4.700;2022-11-22T01:18:11;12.40;;;9.33;;
19705;SDS011;10003;52.506;4.700;2022-11-22T01:20:40;19.30;;;15.33;;
19705;SDS011;10003;52.506;4.700;2022-11-22T01:23:09;20.50;;;13.83;;
19705;SDS011;10003;52.506;4.700;2022-11-22T01:25:40;21.93;;;17.97;;
19705;SDS011;10003;52.506;4.700;2022-11-22T01:28:09;21.40;;;16.97;;
19705;SDS011;10003;52.506;4.700;2022-11-22T01:30:37;18.93;;;13.90;;
19705;SDS011;10003;52.506;4.700;2022-11-22T01:33:06;19.43;;;14.20;;
19705;SDS011;10003;52.506;4.700;2022-11-22T01:35:34;20.33;;;17.37;;
19705;SDS011;10003;52.506;4.700;2022-11-22T01:38:04;16.83;;;14.40;;
19705;SDS011;10003;52.506;4.700;2022-11-22T01:40:32;21.00;;;17.87;;
19705;SDS011;10003;52.506;4.700;2022-11-22T01:43:00;23.87;;;18.63;;
19705;SDS011;10003;52.506;4.700;2022-11-22T01:45:40;19.17;;;16.13;;
19705;SDS011;10003;52.506;4.700;2022-11-22T01:48:23;20.13;;;18.00;;
19705;SDS011;10003;52.506;4.700;2022-11-22T01:50:53;20.87;;;16.00;;
19705;SDS011;10003;52.506;4.700;2022-11-22T01:53:26;25.60;;;15.47;;
19705;SDS011;10003;52.506;4.700;2022-11-22T01:55:55;10.17;;;9.20;;
19705;SDS011;10003;52.506;4.700;2022-11-22T01:58:24;15.70;;;14.10;;
19705;SDS011;10003;52.506;4.700;2022-11-22T02:00:54;16.40;;;11.90;;
19705;SDS011;10003;52.506;4.700;2022-11-22T02:03:23;19.27;;;16.40;;
19705;SDS011;10003;52.506;4.700;2022-11-22T02:05:51;18.27;;;12.90;;
19705;SDS011;10003;52.506;4.700;2022-11-22T02:08:21;15.27;;;12.70;;
19705;SDS011;10003;52.506;4.700;2022-11-22T02:10:53;16.37;;;13.57;;
19705;SDS011;10003;52.506;4.700;2022-11-22T02:13:23;17.23;;;10.83;;
19705;SDS011;10003;52.506;4.700;2022-11-22T02:15:51;16.33;;;12.43;;
19705;SDS011;10003;52.506;4.700;2022-11-22T02:18:20;14.70;;;11.03;;
19705;SDS011;10003;52.506;4.700;2022-11-22T02:20:48;13.47;;;9.33;;
19705;SDS011;10003;52.506;4.700;2022-11-22T02:23:18;10.07;;;7.40;;
19705;SDS011;10003;52.506;4.700;2022-11-22T02:25:55;12.77;;;10.67;;
19705;SDS011;10003;52.506;4.700;2022-11-22T02:28:24;15.23;;;8.70;;
19705;SDS011;10003;52.506;4.700;2022-11-22T02:30:53;10.53;;;9.47;;
19705;SDS011;10003;52.506;4.700;2022-11-22T02:33:22;15.70;;;10.47;;
19705;SDS011;10003;52.506;4.700;2022-11-22T02:35:50;11.97;;;10.60;;
19705;SDS011;10003;52.506;4.700;2022-11-22T02:38:20;15.10;;;10.13;;
19705;SDS011;10003;52.506;4.700;2022-11-22T02:40:51;12.63;;;8.60;;
19705;SDS011;10003;52.506;4.700;2022-11-22T02:43:22;17.23;;;8.40;;
19705;SDS011;10003;52.506;4.700;2022-11-22T02:45:51;16.63;;;9.53;;
19705;SDS011;10003;52.506;4.700;2022-11-22T02:48:20;14.50;;;10.33;;
19705;SDS011;10003;52.506;4.700;2022-11-22T02:50:48;13.03;;;7.37;;
19705;SDS011;10003;52.506;4.700;2022-11-22T02:53:16;14.27;;;8.57;;
19705;SDS011;10003;52.506;4.700;2022-11-22T02:55:45;16.03;;;9.60;;
19705;SDS011;10003;52.506;4.700;2022-11-22T02:58:13;15.20;;;10.13;;
19705;SDS011;10003;52.506;4.700;2022-11-22T03:00:43;14.10;;;7.13;;
19705;SDS011;10003;52.506;4.700;2022-11-22T03:03:11;14.63;;;9.10;;
19705;SDS011;10003;52.506;4.700;2022-11-22T03:05:39;17.83;;;9.07;;
19705;SDS011;10003;52.506;4.700;2022-11-22T03:08:08;15.07;;;9.70;;
19705;SDS011;10003;52.506;4.700;2022-11-22T03:10:36;15.40;;;8.17;;
19705;SDS011;10003;52.506;4.700;2022-11-22T03:13:05;20.30;;;9.63;;
19705;SDS011;10003;52.506;4.700;2022-11-22T03:15:33;14.93;;;8.50;;
19705;SDS011;10003;52.506;4.700;2022-11-22T03:18:03;16.27;;;10.43;;
19705;SDS011;10003;52.506;4.700;2022-11-22T03:20:31;16.77;;;8.87;;
19705;SDS011;10003;52.506;4.700;2022-11-22T03:22:59;10.73;;;6.47;;
19705;SDS011;10003;52.506;4.700;2022-11-22T03:25:28;19.50;;;9.27;;
19705;SDS011;10003;52.506;4.700;2022-11-22T03:27:56;16.50;;;8.57;;
19705;SDS011;10003;52.506;4.700;2022-11-22T03:30:25;11.23;;;7.70;;
19705;SDS011;10003;52.506;4.700;2022-11-22T03:32:54;16.30;;;6.43;;
19705;SDS011;10003;52.506;4.700;2022-11-22T03:35:23;8.20;;;5.63;;
19705;SDS011;10003;52.506;4.700;2022-11-22T03:37:52;14.57;;;8.93;;
19705;SDS011;10003;52.506;4.700;2022-11-22T03:40:20;14.97;;;7.63;;
19705;SDS011;10003;52.506;4.700;2022-11-22T03:42:49;14.93;;;7.50;;
19705;SDS011;10003;52.506;4.700;2022-11-22T03:45:17;13.27;;;7.37;;
19705;SDS011;10003;52.506;4.700;2022-11-22T03:47:45;12.07;;;7.00;;
19705;SDS011;10003;52.506;4.700;2022-11-22T03:50:14;16.27;;;6.73;;
19705;SDS011;10003;52.506;4.700;2022-11-22T03:52:44;11.80;;;5.73;;
19705;SDS011;10003;52.506;4.700;2022-11-22T03:55:12;19.03;;;7.10;;
19705;SDS011;10003;52.506;4.700;2022-11-22T03:57:41;13.37;;;6.90;;
19705;SDS011;10003;52.506;4.700;2022-11-22T04:00:10;16.00;;;6.37;;
19705;SDS011;10003;52.506;4.700;2022-11-22T04:02:38;15.87;;;7.67;;
19705;SDS011;10003;52.506;4.700;2022-11-22T04:05:07;15.20;;;6.10;;
19705;SDS011;10003;52.506;4.700;2022-11-22T04:07:35;11.80;;;6.03;;
19705;SDS011;10003;52.506;4.700;2022-11-22T04:10:06;9.27;;;5.27;;
19705;SDS011;10003;52.506;4.700;2022-11-22T04:12:34;16.93;;;6.53;;
19705;SDS011;10003;52.506;4.700;2022-11-22T04:15:03;13.97;;;6.83;;
19705;SDS011;10003;52.506;4.700;2022-11-22T04:17:35;15.27;;;6.47;;
19705;SDS011;10003;52.506;4.700;2022-11-22T04:20:12;12.90;;;5.40;;
19705;SDS011;10003;52.506;4.700;2022-11-22T04:22:58;10.63;;;6.87;;
19705;SDS011;10003;52.506;4.700;2022-11-22T04:25:29;16.53;;;5.77;;
19705;SDS011;10003;52.506;4.700;2022-11-22T04:27:57;16.23;;;6.20;;
19705;SDS011;10003;52.506;4.700;2022-11-22T04:30:26;13.20;;;6.20;;
19705;SDS011;10003;52.506;4.700;2022-11-22T04:33:09;10.17;;;5.17;;
19705;SDS011;10003;52.506;4.700;2022-11-22T04:35:38;13.60;;;5.43;;
19705;SDS011;10003;52.506;4.700;2022-11-22T04:38:06;8.87;;;5.10;;
19705;SDS011;10003;52.506;4.700;2022-11-22T04:40:36;12.23;;;5.77;;
19705;SDS011;10003;52.506;4.700;2022-11-22T04:43:05;11.07;;;4.13;;
19705;SDS011;10003;52.506;4.700;2022-11-22T04:45:51;10.93;;;4.23;;
19705;SDS011;10003;52.506;4.700;2022-11-22T04:48:19;11.30;;;5.47;;
19705;SDS011;10003;52.506;4.700;2022-11-22T04:50:48;11.30;;;4.83;;
19705;SDS011;10003;52.506;4.700;2022-11-22T04:53:34;14.27;;;5.33;;
19705;SDS011;10003;52.506;4.700;2022-11-22T04:56:04;11.90;;;5.17;;
19705;SDS011;10003;52.506;4.700;2022-11-22T04:58:32;14.60;;;5.13;;
19705;SDS011;10003;52.506;4.700;2022-11-22T05:01:00;9.80;;;4.57;;
19705;SDS011;10003;52.506;4.700;2022-11-22T05:03:29;9.73;;;4.53;;
19705;SDS011;10003;52.506;4.700;2022-11-22T05:05:59;10.80;;;4.43;;
19705;SDS011;10003;52.506;4.700;2022-11-22T05:08:27;10.37;;;4.53;;
19705;SDS011;10003;52.506;4.700;2022-11-22T05:10:56;12.27;;;4.57;;
19705;SDS011;10003;52.506;4.700;2022-11-22T05:13:28;9.30;;;3.90;;
19705;SDS011;10003;52.506;4.700;2022-11-22T05:15:56;12.60;;;5.20;;
19705;SDS011;10003;52.506;4.700;2022-11-22T05:18:25;13.93;;;4.93;;
19705;SDS011;10003;52.506;4.700;2022-11-22T05:20:54;13.77;;;5.70;;
19705;SDS011;10003;52.506;4.700;2022-11-22T05:23:23;11.60;;;4.80;;
19705;SDS011;10003;52.506;4.700;2022-11-22T05:26:09;14.07;;;5.57;;
19705;SDS011;10003;52.506;4.700;2022-11-22T05:28:39;8.23;;;4.43;;
19705;SDS011;10003;52.506;4.700;2022-11-22T05:31:08;11.50;;;4.87;;
19705;SDS011;10003;52.506;4.700;2022-11-22T05:33:36;9.80;;;4.73;;
19705;SDS011;10003;52.506;4.700;2022-11-22T05:36:05;12.17;;;4.07;;
19705;SDS011;10003;52.506;4.700;2022-11-22T05:38:34;8.23;;;3.97;;
19705;SDS011;10003;52.506;4.700;2022-11-22T05:41:03;9.43;;;4.27;;
19705;SDS011;10003;52.506;4.700;2022-11-22T05:43:32;11.83;;;4.00;;
19705;SDS011;10003;52.506;4.700;2022-11-22T05:46:06;8.27;;;3.70;;
19705;SDS011;10003;52.506;4.700;2022-11-22T05:48:35;8.60;;;3.80;;
19705;SDS011;10003;52.506;4.700;2022-11-22T05:51:04;10.60;;;4.60;;
19705;SDS011;10003;52.506;4.700;2022-11-22T05:53:32;14.43;;;5.27;;
19705;SDS011;10003;52.506;4.700;2022-11-22T05:56:04;13.40;;;5.20;;
19705;SDS011;10003;52.506;4.700;2022-11-22T05:58:33;15.27;;;6.17;;
19705;SDS011;10003;52.506;4.700;2022-11-22T06:01:02;13.17;;;4.50;;
19705;SDS011;10003;52.506;4.700;2022-11-22T06:03:32;8.83;;;5.23;;
19705;SDS011;10003;52.506;4.700;2022-11-22T06:06:00;11.53;;;6.20;;
19705;SDS011;10003;52.506;4.700;2022-11-22T06:08:29;12.67;;;5.70;;
19705;SDS011;10003;52.506;4.700;2022-11-22T06:11:02;13.17;;;6.73;;
19705;SDS011;10003;52.506;4.700;2022-11-22T06:13:34;12.93;;;5.83;;
19705;SDS011;10003;52.506;4.700;2022-11-22T06:16:03;12.40;;;5.90;;
19705;SDS011;10003;52.506;4.700;2022-11-22T06:18:33;11.77;;;6.13;;
19705;SDS011;10003;52.506;4.700;2022-11-22T06:21:02;12.23;;;5.83;;
19705;SDS011;10003;52.506;4.700;2022-11-22T06:23:32;10.67;;;5.63;;
19705;SDS011;10003;52.506;4.700;2022-11-22T06:26:01;12.87;;;6.30;;
19705;SDS011;10003;52.506;4.700;2022-11-22T06:28:30;15.30;;;6.90;;
19705;SDS011;10003;52.506;4.700;2022-11-22T06:30:59;15.30;;;6.37;;
19705;SDS011;10003;52.506;4.700;2022-11-22T06:33:28;10.73;;;7.17;;
19705;SDS011;10003;52.506;4.700;2022-11-22T06:36:01;13.37;;;8.30;;
19705;SDS011;10003;52.506;4.700;2022-11-22T06:38:30;13.97;;;7.57;;
19705;SDS011;10003;52.506;4.700;2022-11-22T06:40:59;13.17;;;8.17;;
19705;SDS011;10003;52.506;4.700;2022-11-22T06:43:28;9.70;;;6.93;;
19705;SDS011;10003;52.506;4.700;2022-11-22T06:45:57;13.23;;;8.30;;
19705;SDS011;10003;52.506;4.700;2022-11-22T06:48:25;12.57;;;8.10;;
19705;SDS011;10003;52.506;4.700;2022-11-22T06:50:57;14.57;;;7.40;;
19705;SDS011;10003;52.506;4.700;2022-11-22T06:53:27;14.33;;;6.50;;
19705;SDS011;10003;52.506;4.700;2022-11-22T06:56:13;11.10;;;8.00;;
19705;SDS011;10003;52.506;4.700;2022-11-22T06:58:42;9.33;;;5.70;;
19705;SDS011;10003;52.506;4.700;2022-11-22T07:01:11;11.23;;;7.03;;
19705;SDS011;10003;52.506;4.700;2022-11-22T07:03:40;15.03;;;8.73;;
19705;SDS011;10003;52.506;4.700;2022-11-22T07:06:09;13.47;;;7.20;;
19705;SDS011;10003;52.506;4.700;2022-11-22T07:08:40;13.90;;;8.37;;
19705;SDS011;10003;52.506;4.700;2022-11-22T07:11:09;14.23;;;8.40;;
19705;SDS011;10003;52.506;4.700;2022-11-22T07:13:38;9.30;;;7.20;;
19705;SDS011;10003;52.506;4.700;2022-11-22T07:16:08;13.27;;;10.83;;
19705;SDS011;10003;52.506;4.700;2022-11-22T07:18:37;11.00;;;7.30;;
19705;SDS011;10003;52.506;4.700;2022-11-22T07:21:06;10.50;;;8.20;;
19705;SDS011;10003;52.506;4.700;2022-11-22T07:23:40;9.70;;;7.00;;
19705;SDS011;10003;52.506;4.700;2022-11-22T07:26:09;9.40;;;4.97;;
19705;SDS011;10003;52.506;4.700;2022-11-22T07:28:38;11.67;;;7.33;;
19705;SDS011;10003;52.506;4.700;2022-11-22T07:31:07;14.70;;;8.03;;
19705;SDS011;10003;52.506;4.700;2022-11-22T07:33:36;15.37;;;10.53;;
19705;SDS011;10003;52.506;4.700;2022-11-22T07:36:05;12.07;;;8.70;;
19705;SDS011;10003;52.506;4.700;2022-11-22T07:38:34;10.87;;;9.77;;
19705;SDS011;10003;52.506;4.700;2022-11-22T07:41:04;17.70;;;11.83;;
19705;SDS011;10003;52.506;4.700;2022-11-22T07:43:33;13.87;;;11.80;;
19705;SDS011;10003;52.506;4.700;2022-11-22T07:46:05;9.60;;;7.80;;
19705;SDS011;10003;52.506;4.700;2022-11-22T07:48:34;13.73;;;10.70;;
19705;SDS011;10003;52.506;4.700;2022-11-22T07:51:03;15.83;;;13.43;;
19705;SDS011;10003;52.506;4.700;2022-11-22T07:53:32;14.40;;;10.03;;
19705;SDS011;10003;52.506;4.700;2022-11-22T07:56:01;16.33;;;11.17;;
19705;SDS011;10003;52.506;4.700;2022-11-22T07:58:31;11.90;;;10.33;;
19705;SDS011;10003;52.506;4.700;2022-11-22T08:01:05;13.93;;;10.67;;
19705;SDS011;10003;52.506;4.700;2022-11-22T08:03:33;9.93;;;7.97;;
19705;SDS011;10003;52.506;4.700;2022-11-22T08:06:03;14.03;;;8.43;;
19705;SDS011;10003;52.506;4.700;2022-11-22T08:08:32;14.67;;;10.87;;
19705;SDS011;10003;52.506;4.700;2022-11-22T08:11:00;13.90;;;9.67;;
19705;SDS011;10003;52.506;4.700;2022-11-22T08:13:31;8.17;;;6.90;;
19705;SDS011;10003;52.506;4.700;2022-11-22T08:16:00;10.20;;;8.73;;
19705;SDS011;10003;52.506;4.700;2022-11-22T08:18:31;8.33;;;7.47;;
19705;SDS011;10003;52.506;4.700;2022-11-22T08:21:01;12.43;;;8.27;;
19705;SDS011;10003;52.506;4.700;2022-11-22T08:23:29;18.53;;;9.83;;
19705;SDS011;10003;52.506;4.700;2022-11-22T08:25:58;13.47;;;10.07;;
19705;SDS011;10003;52.506;4.700;2022-11-22T08:28:26;10.17;;;8.33;;
19705;SDS011;10003;52.506;4.700;2022-11-22T08:31:01;11.60;;;7.60;;
19705;SDS011;10003;52.506;4.700;2022-11-22T08:33:30;9.83;;;7.27;;
19705;SDS011;10003;52.506;4.700;2022-11-22T08:35:58;10.13;;;6.47;;
19705;SDS011;10003;52.506;4.700;2022-11-22T08:38:26;5.20;;;4.50;;
19705;SDS011;10003;52.506;4.700;2022-11-22T08:40:55;11.37;;;8.80;;
19705;SDS011;10003;52.506;4.700;2022-11-22T08:43:24;14.07;;;8.83;;
19705;SDS011;10003;52.506;4.700;2022-11-22T08:45:52;8.33;;;7.43;;
19705;SDS011;10003;52.506;4.700;2022-11-22T08:48:24;13.87;;;6.80;;
19705;SDS011;10003;52.506;4.700;2022-11-22T08:50:52;8.03;;;7.23;;
19705;SDS011;10003;52.506;4.700;2022-11-22T08:53:21;12.47;;;5.80;;
19705;SDS011;10003;52.506;4.700;2022-11-22T08:55:50;10.43;;;7.60;;
19705;SDS011;10003;52.506;4.700;2022-11-22T08:58:18;9.20;;;7.03;;
19705;SDS011;10003;52.506;4.700;2022-11-22T09:00:47;9.93;;;7.77;;
19705;SDS011;10003;52.506;4.700;2022-11-22T09:03:15;9.00;;;7.63;;
19705;SDS011;10003;52.506;4.700;2022-11-22T09:05:47;10.90;;;4.67;;
19705;SDS011;10003;52.506;4.700;2022-11-22T09:08:36;11.20;;;7.27;;
19705;SDS011;10003;52.506;4.700;2022-11-22T09:11:11;10.73;;;6.87;;
19705;SDS011;10003;52.506;4.700;2022-11-22T09:13:40;8.83;;;7.27;;
19705;SDS011;10003;52.506;4.700;2022-11-22T09:16:09;10.50;;;7.07;;
19705;SDS011;10003;52.506;4.700;2022-11-22T09:18:38;11.03;;;8.13;;
19705;SDS011;10003;52.506;4.700;2022-11-22T09:21:09;8.50;;;6.97;;
19705;SDS011;10003;52.506;4.700;2022-11-22T09:23:41;8.30;;;7.50;;
19705;SDS011;10003;52.506;4.700;2022-11-22T09:26:10;7.47;;;6.73;;
19705;SDS011;10003;52.506;4.700;2022-11-22T09:28:39;9.77;;;7.57;;
19705;SDS011;10003;52.506;4.700;2022-11-22T09:31:08;8.30;;;7.30;;
19705;SDS011;10003;52.506;4.700;2022-11-22T09:33:38;9.37;;;7.90;;
19705;SDS011;10003;52.506;4.700;2022-11-22T09:36:07;9.03;;;7.83;;
19705;SDS011;10003;52.506;4.700;2022-11-22T09:38:37;11.63;;;8.03;;
19705;SDS011;10003;52.506;4.700;2022-11-22T09:41:11;9.27;;;8.17;;
19705;SDS011;10003;52.506;4.700;2022-11-22T09:43:44;9.33;;;7.37;;
19705;SDS011;10003;52.506;4.700;2022-11-22T09:46:17;7.27;;;5.50;;
19705;SDS011;10003;52.506;4.700;2022-11-22T09:48:54;9.27;;;7.20;;
19705;SDS011;10003;52.506;4.700;2022-11-22T09:51:24;7.30;;;6.50;;
19705;SDS011;10003;52.506;4.700;2022-11-22T09:53:58;7.70;;;5.00;;
19705;SDS011;10003;52.506;4.700;2022-11-22T09:56:29;11.07;;;6.03;;
19705;SDS011;10003;52.506;4.700;2022-11-22T09:58:59;8.50;;;6.47;;
19705;SDS011;10003;52.506;4.700;2022-11-22T10:01:30;9.83;;;7.23;;
19705;SDS011;10003;52.506;4.700;2022-11-22T10:04:05;8.30;;;6.47;;
19705;SDS011;10003;52.506;4.700;2022-11-22T10:06:36;5.80;;;4.77;;
19705;SDS011;10003;52.506;4.700;2022-11-22T10:09:11;8.23;;;5.97;;
19705;SDS011;10003;52.506;4.700;2022-11-22T10:11:46;10.03;;;6.87;;
19705;SDS011;10003;52.506;4.700;2022-11-22T10:14:21;11.10;;;8.40;;
19705;SDS011;10003;52.506;4.700;2022-11-22T10:16:54;8.73;;;7.83;;
19705;SDS011;10003;52.506;4.700;2022-11-22T10:19:26;8.87;;;7.97;;
19705;SDS011;10003;52.506;4.700;2022-11-22T10:22:00;6.40;;;4.53;;
19705;SDS011;10003;52.506;4.700;2022-11-22T10:24:30;8.03;;;5.63;;
19705;SDS011;10003;52.506;4.700;2022-11-22T10:27:00;7.50;;;6.67;;
19705;SDS011;10003;52.506;4.700;2022-11-22T10:29:30;8.03;;;6.90;;
19705;SDS011;10003;52.506;4.700;2022-11-22T10:32:04;7.53;;;6.67;;
19705;SDS011;10003;52.506;4.700;2022-11-22T10:34:42;7.83;;;6.60;;
19705;SDS011;10003;52.506;4.700;2022-11-22T10:37:15;9.97;;;6.73;;
19705;SDS011;10003;52.506;4.700;2022-11-22T10:40:05;6.03;;;4.77;;
19705;SDS011;10003;52.506;4.700;2022-11-22T10:42:41;10.40;;;5.40;;
19705;SDS011;10003;52.506;4.700;2022-11-22T10:45:15;10.47;;;7.17;;
19705;SDS011;10003;52.506;4.700;2022-11-22T10:47:47;7.27;;;6.10;;
19705;SDS011;10003;52.506;4.700;2022-11-22T10:50:18;9.47;;;6.90;;
19705;SDS011;10003;52.506;4.700;2022-11-22T10:52:52;8.73;;;5.87;;
19705;SDS011;10003;52.506;4.700;2022-11-22T10:55:30;9.20;;;5.87;;
19705;SDS011;10003;52.506;4.700;2022-11-22T10:58:04;9.80;;;5.93;;
19705;SDS011;10003;52.506;4.700;2022-11-22T11:00:36;9.23;;;4.87;;
19705;SDS011;10003;52.506;4.700;2022-11-22T11:03:11;5.70;;;4.33;;
19705;SDS011;10003;52.506;4.700;2022-11-22T11:05:42;6.03;;;5.43;;
19705;SDS011;10003;52.506;4.700;2022-11-22T11:08:33;9.97;;;5.90;;
19705;SDS011;10003;52.506;4.700;2022-11-22T11:11:25;7.40;;;4.93;;
19705;SDS011;10003;52.506;4.700;2022-11-22T11:13:54;9.10;;;4.50;;
19705;SDS011;10003;52.506;4.700;2022-11-22T11:16:24;7.73;;;3.33;;
19705;SDS011;10003;52.506;4.700;2022-11-22T11:18:53;4.93;;;4.43;;
19705;SDS011;10003;52.506;4.700;2022-11-22T11:21:24;5.57;;;4.17;;
19705;SDS011;10003;52.506;4.700;2022-11-22T11:23:53;9.57;;;5.37;;
19705;SDS011;10003;52.506;4.700;2022-11-22T11:26:23;6.40;;;5.20;;
19705;SDS011;10003;52.506;4.700;2022-11-22T11:31:42;5.53;;;4.53;;
19705;SDS011;10003;52.506;4.700;2022-11-22T11:34:14;9.77;;;5.73;;
19705;SDS011;10003;52.506;4.700;2022-11-22T11:36:43;5.13;;;4.63;;
19705;SDS011;10003;52.506;4.700;2022-11-22T11:39:18;6.93;;;5.20;;
19705;SDS011;10003;52.506;4.700;2022-11-22T11:41:47;4.63;;;3.67;;
19705;SDS011;10003;52.506;4.700;2022-11-22T11:44:25;4.97;;;4.07;;
19705;SDS011;10003;52.506;4.700;2022-11-22T11:46:56;9.17;;;5.10;;
19705;SDS011;10003;52.506;4.700;2022-11-22T11:49:29;8.30;;;4.50;;
19705;SDS011;10003;52.506;4.700;2022-11-22T11:51:59;8.43;;;4.73;;
19705;SDS011;10003;52.506;4.700;2022-11-22T11:54:32;8.50;;;5.13;;
19705;SDS011;10003;52.506;4.700;2022-11-22T11:57:01;6.13;;;4.50;;
19705;SDS011;10003;52.506;4.700;2022-11-22T11:59:31;4.73;;;3.47;;
19705;SDS011;10003;52.506;4.700;2022-11-22T12:02:11;6.23;;;3.90;;
19705;SDS011;10003;52.506;4.700;2022-11-22T12:04:46;5.70;;;3.93;;
19705;SDS011;10003;52.506;4.700;2022-11-22T12:07:17;4.67;;;2.93;;
19705;SDS011;10003;52.506;4.700;2022-11-22T12:09:46;3.67;;;3.33;;
19705;SDS011;10003;52.506;4.700;2022-11-22T12:12:26;5.10;;;3.80;;
19705;SDS011;10003;52.506;4.700;2022-11-22T12:14:58;5.90;;;4.57;;
19705;SDS011;10003;52.506;4.700;2022-11-22T12:17:51;7.53;;;4.70;;
19705;SDS011;10003;52.506;4.700;2022-11-22T12:20:23;9.77;;;4.23;;
19705;SDS011;10003;52.506;4.700;2022-11-22T12:22:57;4.57;;;3.00;;
19705;SDS011;10003;52.506;4.700;2022-11-22T12:25:26;8.83;;;4.37;;
19705;SDS011;10003;52.506;4.700;2022-11-22T12:27:59;5.50;;;4.60;;
19705;SDS011;10003;52.506;4.700;2022-11-22T12:30:33;5.20;;;4.60;;
19705;SDS011;10003;52.506;4.700;2022-11-22T12:33:03;5.63;;;4.67;;
19705;SDS011;10003;52.506;4.700;2022-11-22T12:35:36;6.23;;;4.87;;
19705;SDS011;10003;52.506;4.700;2022-11-22T12:38:07;8.17;;;5.03;;
19705;SDS011;10003;52.506;4.700;2022-11-22T12:40:39;6.27;;;4.83;;
19705;SDS011;10003;52.506;4.700;2022-11-22T12:43:11;5.77;;;4.77;;
19705;SDS011;10003;52.506;4.700;2022-11-22T12:45:42;7.83;;;5.17;;
19705;SDS011;10003;52.506;4.700;2022-11-22T12:48:14;5.80;;;5.20;;
19705;SDS011;10003;52.506;4.700;2022-11-22T12:50:45;4.57;;;4.13;;
19705;SDS011;10003;52.506;4.700;2022-11-22T12:53:16;6.73;;;5.10;;
19705;SDS011;10003;52.506;4.700;2022-11-22T12:55:48;4.57;;;3.63;;
19705;SDS011;10003;52.506;4.700;2022-11-22T12:58:20;5.90;;;4.43;;
19705;SDS011;10003;52.506;4.700;2022-11-22T13:00:54;9.00;;;4.40;;
19705;SDS011;10003;52.506;4.700;2022-11-22T13:03:28;6.73;;;5.07;;
19705;SDS011;10003;52.506;4.700;2022-11-22T13:05:58;7.13;;;5.37;;
19705;SDS011;10003;52.506;4.700;2022-11-22T13:08:30;5.73;;;4.23;;
19705;SDS011;10003;52.506;4.700;2022-11-22T13:11:02;7.27;;;4.57;;
19705;SDS011;10003;52.506;4.700;2022-11-22T13:13:33;5.63;;;4.77;;
19705;SDS011;10003;52.506;4.700;2022-11-22T13:16:05;6.73;;;5.33;;
19705;SDS011;10003;52.506;4.700;2022-11-22T13:18:37;5.03;;;4.47;;
19705;SDS011;10003;52.506;4.700;2022-11-22T13:21:07;5.83;;;4.60;;
19705;SDS011;10003;52.506;4.700;2022-11-22T13:23:44;5.83;;;4.70;;
19705;SDS011;10003;52.506;4.700;2022-11-22T13:26:17;3.90;;;3.23;;
19705;SDS011;10003;52.506;4.700;2022-11-22T13:28:47;3.97;;;3.57;;
19705;SDS011;10003;52.506;4.700;2022-11-22T13:31:17;5.93;;;3.83;;
19705;SDS011;10003;52.506;4.700;2022-11-22T13:33:54;5.50;;;3.50;;
19705;SDS011;10003;52.506;4.700;2022-11-22T13:36:30;5.13;;;4.20;;
19705;SDS011;10003;52.506;4.700;2022-11-22T13:39:03;6.33;;;4.30;;
19705;SDS011;10003;52.506;4.700;2022-11-22T13:41:36;7.27;;;4.50;;
19705;SDS011;10003;52.506;4.700;2022-11-22T13:49:49;5.30;;;4.10;;
19705;SDS011;10003;52.506;4.700;2022-11-22T13:52:26;6.80;;;2.87;;
19705;SDS011;10003;52.506;4.700;2022-11-22T13:57:42;4.73;;;3.10;;
19705;SDS011;10003;52.506;4.700;2022-11-22T14:11:41;5.93;;;3.20;;
19705;SDS011;10003;52.506;4.700;2022-11-22T14:14:14;4.20;;;3.80;;
19705;SDS011;10003;52.506;4.700;2022-11-22T14:16:49;4.63;;;4.07;;
19705;SDS011;10003;52.506;4.700;2022-11-22T14:19:30;4.00;;;3.57;;
19705;SDS011;10003;52.506;4.700;2022-11-22T14:22:15;3.53;;;3.23;;
19705;SDS011;10003;52.506;4.700;2022-11-22T14:24:57;4.77;;;3.53;;
19705;SDS011;10003;52.506;4.700;2022-11-22T14:27:40;4.10;;;3.80;;
19705;SDS011;10003;52.506;4.700;2022-11-22T14:30:14;3.77;;;3.40;;
19705;SDS011;10003;52.506;4.700;2022-11-22T14:32:47;4.10;;;3.70;;
19705;SDS011;10003;52.506;4.700;2022-11-22T14:35:22;3.27;;;2.70;;
19705;SDS011;10003;52.506;4.700;2022-11-22T14:37:59;3.53;;;3.20;;
19705;SDS011;10003;52.506;4.700;2022-11-22T14:40:30;2.97;;;2.73;;
19705;SDS011;10003;52.506;4.700;2022-11-22T14:45:54;4.87;;;3.67;;
19705;SDS011;10003;52.506;4.700;2022-11-22T14:48:29;7.23;;;4.17;;
19705;SDS011;10003;52.506;4.700;2022-11-22T14:51:00;3.63;;;3.33;;
19705;SDS011;10003;52.506;4.700;2022-11-22T14:53:35;3.80;;;3.50;;
19705;SDS011;10003;52.506;4.700;2022-11-22T14:56:05;3.67;;;2.80;;
19705;SDS011;10003;52.506;4.700;2022-11-22T14:58:36;3.53;;;2.70;;
19705;SDS011;10003;52.506;4.700;2022-11-22T15:07:16;3.67;;;3.07;;
19705;SDS011;10003;52.506;4.700;2022-11-22T15:15:45;3.67;;;3.17;;
19705;SDS011;10003;52.506;4.700;2022-11-22T15:18:36;3.77;;;2.90;;
19705;SDS011;10003;52.506;4.700;2022-11-22T15:21:26;2.93;;;2.70;;
19705;SDS011;10003;52.506;4.700;2022-11-22T15:24:24;4.60;;;4.20;;
19705;SDS011;10003;52.506;4.700;2022-11-22T15:27:27;4.20;;;3.90;;
19705;SDS011;10003;52.506;4.700;2022-11-22T15:30:18;3.40;;;2.90;;
19705;SDS011;10003;52.506;4.700;2022-11-22T15:33:11;3.90;;;3.30;;
19705;SDS011;10003;52.506;4.700;2022-11-22T15:39:08;3.53;;;3.23;;
19705;SDS011;10003;52.506;4.700;2022-11-22T15:42:02;3.73;;;2.70;;
19705;SDS011;10003;52.506;4.700;2022-11-22T15:44:51;4.10;;;3.70;;